sensor_id;sensor_type;location;lat;lon;timestamp;temperature;humidity
77039;DHT22;65970;50.476;4.840;2023-09-19T00:04:23;20.10;33.10
77039;DHT22;65970;50.476;4.840;2023-09-19T00:09:23;20.10;33.10
77039;DHT22;65970;50.476;4.840;2023-09-19T00:14:25;20.10;33.00
77039;DHT22;65970;50.476;4.840;2023-09-19T00:19:25;20.00;33.00
77039;DHT22;65970;50.476;4.840;2023-09-19T00:24:26;20.00;33.20
77039;DHT22;65970;50.476;4.840;2023-09-19T00:29:26;19.90;33.20
77039;DHT22;65970;50.476;4.840;2023-09-19T00:34:27;19.90;33.30
77039;DHT22;65970;50.476;4.840;2023-09-19T00:39:27;19.90;33.20
77039;DHT22;65970;50.476;4.840;2023-09-19T00:44:28;19.80;33.10
77039;DHT22;65970;50.476;4.840;2023-09-19T00:49:28;19.80;33.10
77039;DHT22;65970;50.476;4.840;2023-09-19T00:54:29;19.70;32.80
77039;DHT22;65970;50.476;4.840;2023-09-19T00:59:30;19.80;32.80
77039;DHT22;65970;50.476;4.840;2023-09-19T01:04:31;19.70;32.60
77039;DHT22;65970;50.476;4.840;2023-09-19T01:09:31;19.60;32.20
77039;DHT22;65970;50.476;4.840;2023-09-19T01:14:53;19.60;32.20
77039;DHT22;65970;50.476;4.840;2023-09-19T01:31:11;19.50;32.10
77039;DHT22;65970;50.476;4.840;2023-09-19T01:36:12;19.40;32.00
77039;DHT22;65970;50.476;4.840;2023-09-19T01:41:17;19.40;32.10
77039;DHT22;65970;50.476;4.840;2023-09-19T01:46:30;19.30;32.20
77039;DHT22;65970;50.476;4.840;2023-09-19T01:51:41;19.30;32.20
77039;DHT22;65970;50.476;4.840;2023-09-19T02:02:04;19.30;32.10
77039;DHT22;65970;50.476;4.840;2023-09-19T02:07:05;19.20;32.00
77039;DHT22;65970;50.476;4.840;2023-09-19T02:12:05;19.20;32.00
77039;DHT22;65970;50.476;4.840;2023-09-19T02:17:06;19.20;31.90
77039;DHT22;65970;50.476;4.840;2023-09-19T02:22:07;19.10;32.00
77039;DHT22;65970;50.476;4.840;2023-09-19T02:27:07;19.10;31.90
77039;DHT22;65970;50.476;4.840;2023-09-19T02:32:08;19.10;31.90
77039;DHT22;65970;50.476;4.840;2023-09-19T02:37:09;19.00;31.80
77039;DHT22;65970;50.476;4.840;2023-09-19T02:42:09;19.00;31.90
77039;DHT22;65970;50.476;4.840;2023-09-19T02:47:10;19.00;31.60
77039;DHT22;65970;50.476;4.840;2023-09-19T02:52:10;18.90;31.40
77039;DHT22;65970;50.476;4.840;2023-09-19T02:57:11;18.90;31.60
77039;DHT22;65970;50.476;4.840;2023-09-19T03:02:11;18.90;31.60
77039;DHT22;65970;50.476;4.840;2023-09-19T03:07:12;18.80;31.60
77039;DHT22;65970;50.476;4.840;2023-09-19T03:12:12;18.80;31.60
77039;DHT22;65970;50.476;4.840;2023-09-19T03:17:13;18.80;31.70
77039;DHT22;65970;50.476;4.840;2023-09-19T03:22:14;18.70;31.90
77039;DHT22;65970;50.476;4.840;2023-09-19T03:27:15;18.70;31.10
77039;DHT22;65970;50.476;4.840;2023-09-19T03:32:15;18.70;31.20
77039;DHT22;65970;50.476;4.840;2023-09-19T03:37:16;18.60;32.00
77039;DHT22;65970;50.476;4.840;2023-09-19T03:42:16;18.60;32.10
77039;DHT22;65970;50.476;4.840;2023-09-19T03:47:17;18.60;32.10
77039;DHT22;65970;50.476;4.840;2023-09-19T03:52:18;18.50;32.00
77039;DHT22;65970;50.476;4.840;2023-09-19T03:57:18;18.50;32.10
77039;DHT22;65970;50.476;4.840;2023-09-19T04:02:20;18.50;32.20
77039;DHT22;65970;50.476;4.840;2023-09-19T04:07:20;18.50;32.00
77039;DHT22;65970;50.476;4.840;2023-09-19T04:12:21;18.50;32.10
77039;DHT22;65970;50.476;4.840;2023-09-19T04:17:21;18.40;32.20
77039;DHT22;65970;50.476;4.840;2023-09-19T04:22:22;18.40;31.90
77039;DHT22;65970;50.476;4.840;2023-09-19T04:27:22;18.30;32.00
77039;DHT22;65970;50.476;4.840;2023-09-19T04:32:23;18.30;31.90
77039;DHT22;65970;50.476;4.840;2023-09-19T04:37:23;18.30;31.90
77039;DHT22;65970;50.476;4.840;2023-09-19T04:42:24;18.30;32.00
77039;DHT22;65970;50.476;4.840;2023-09-19T04:47:25;18.20;32.00
77039;DHT22;65970;50.476;4.840;2023-09-19T04:52:25;18.20;32.00
77039;DHT22;65970;50.476;4.840;2023-09-19T04:57:26;18.20;32.00
77039;DHT22;65970;50.476;4.840;2023-09-19T05:02:29;18.20;32.20
77039;DHT22;65970;50.476;4.840;2023-09-19T05:07:29;18.10;32.20
77039;DHT22;65970;50.476;4.840;2023-09-19T05:12:30;18.10;32.20
77039;DHT22;65970;50.476;4.840;2023-09-19T05:17:31;18.10;32.20
77039;DHT22;65970;50.476;4.840;2023-09-19T05:22:31;18.10;32.30
77039;DHT22;65970;50.476;4.840;2023-09-19T05:27:32;18.10;32.20
77039;DHT22;65970;50.476;4.840;2023-09-19T05:32:32;18.00;32.20
77039;DHT22;65970;50.476;4.840;2023-09-19T05:37:33;18.00;32.60
77039;DHT22;65970;50.476;4.840;2023-09-19T05:42:33;18.00;32.50
77039;DHT22;65970;50.476;4.840;2023-09-19T05:47:34;18.00;32.40
77039;DHT22;65970;50.476;4.840;2023-09-19T05:52:38;18.00;32.00
77039;DHT22;65970;50.476;4.840;2023-09-19T05:57:39;17.90;32.10
77039;DHT22;65970;50.476;4.840;2023-09-19T06:02:39;17.90;32.20
77039;DHT22;65970;50.476;4.840;2023-09-19T06:07:40;17.90;32.20
77039;DHT22;65970;50.476;4.840;2023-09-19T06:12:44;17.90;32.40
77039;DHT22;65970;50.476;4.840;2023-09-19T06:17:49;17.90;32.10
77039;DHT22;65970;50.476;4.840;2023-09-19T06:22:50;17.90;32.20
77039;DHT22;65970;50.476;4.840;2023-09-19T06:27:52;17.80;32.30
77039;DHT22;65970;50.476;4.840;2023-09-19T06:32:56;17.80;32.10
77039;DHT22;65970;50.476;4.840;2023-09-19T06:37:57;17.80;32.10
77039;DHT22;65970;50.476;4.840;2023-09-19T06:42:58;17.80;32.10
77039;DHT22;65970;50.476;4.840;2023-09-19T06:47:58;17.80;32.00
77039;DHT22;65970;50.476;4.840;2023-09-19T06:52:59;17.80;31.90
77039;DHT22;65970;50.476;4.840;2023-09-19T06:57:59;17.80;32.00
77039;DHT22;65970;50.476;4.840;2023-09-19T07:03:04;17.70;31.90
77039;DHT22;65970;50.476;4.840;2023-09-19T07:08:06;17.80;32.10
77039;DHT22;65970;50.476;4.840;2023-09-19T07:13:08;17.70;31.70
77039;DHT22;65970;50.476;4.840;2023-09-19T07:18:09;17.70;31.90
77039;DHT22;65970;50.476;4.840;2023-09-19T07:23:09;17.70;31.80
77039;DHT22;65970;50.476;4.840;2023-09-19T07:28:10;17.70;32.10
77039;DHT22;65970;50.476;4.840;2023-09-19T07:33:10;17.70;32.30
77039;DHT22;65970;50.476;4.840;2023-09-19T07:38:11;17.70;32.20
77039;DHT22;65970;50.476;4.840;2023-09-19T07:43:11;17.70;31.90
77039;DHT22;65970;50.476;4.840;2023-09-19T07:48:12;17.70;32.00
77039;DHT22;65970;50.476;4.840;2023-09-19T07:53:15;17.70;32.00
77039;DHT22;65970;50.476;4.840;2023-09-19T07:58:15;17.70;32.00
77039;DHT22;65970;50.476;4.840;2023-09-19T08:03:16;17.70;32.20
77039;DHT22;65970;50.476;4.840;2023-09-19T08:08:16;17.70;32.10
77039;DHT22;65970;50.476;4.840;2023-09-19T08:13:17;17.80;32.10
77039;DHT22;65970;50.476;4.840;2023-09-19T08:18:17;17.80;31.90
77039;DHT22;65970;50.476;4.840;2023-09-19T08:23:18;17.80;31.90
77039;DHT22;65970;50.476;4.840;2023-09-19T08:28:19;17.80;32.20
77039;DHT22;65970;50.476;4.840;2023-09-19T08:33:19;17.90;32.20
77039;DHT22;65970;50.476;4.840;2023-09-19T08:38:20;17.90;30.60
77039;DHT22;65970;50.476;4.840;2023-09-19T08:43:21;17.90;32.30
77039;DHT22;65970;50.476;4.840;2023-09-19T08:48:28;18.00;32.10
77039;DHT22;65970;50.476;4.840;2023-09-19T08:53:51;18.00;32.40
77039;DHT22;65970;50.476;4.840;2023-09-19T08:58:59;18.00;32.40
77039;DHT22;65970;50.476;4.840;2023-09-19T09:04:02;18.10;32.20
77039;DHT22;65970;50.476;4.840;2023-09-19T09:09:02;18.10;32.20
77039;DHT22;65970;50.476;4.840;2023-09-19T09:14:03;18.20;31.90
77039;DHT22;65970;50.476;4.840;2023-09-19T09:19:06;18.20;32.10
77039;DHT22;65970;50.476;4.840;2023-09-19T09:24:29;18.20;32.20
77039;DHT22;65970;50.476;4.840;2023-09-19T09:29:50;18.30;32.30
77039;DHT22;65970;50.476;4.840;2023-09-19T09:34:56;18.40;32.30
77039;DHT22;65970;50.476;4.840;2023-09-19T09:39:59;18.40;32.30
77039;DHT22;65970;50.476;4.840;2023-09-19T09:45:19;18.50;32.30
77039;DHT22;65970;50.476;4.840;2023-09-19T09:50:27;18.50;32.20
77039;DHT22;65970;50.476;4.840;2023-09-19T09:55:28;18.60;32.30
77039;DHT22;65970;50.476;4.840;2023-09-19T10:00:29;18.70;32.20
77039;DHT22;65970;50.476;4.840;2023-09-19T10:05:32;18.70;32.10
77039;DHT22;65970;50.476;4.840;2023-09-19T10:10:38;18.80;32.10
77039;DHT22;65970;50.476;4.840;2023-09-19T10:15:39;18.80;31.90
77039;DHT22;65970;50.476;4.840;2023-09-19T10:20:40;18.90;31.90
77039;DHT22;65970;50.476;4.840;2023-09-19T10:25:42;18.90;31.80
77039;DHT22;65970;50.476;4.840;2023-09-19T10:30:44;19.00;31.50
77039;DHT22;65970;50.476;4.840;2023-09-19T10:35:47;19.00;31.40
77039;DHT22;65970;50.476;4.840;2023-09-19T10:40:55;19.10;31.30
77039;DHT22;65970;50.476;4.840;2023-09-19T10:46:01;19.10;31.30
77039;DHT22;65970;50.476;4.840;2023-09-19T10:51:25;19.20;31.20
77039;DHT22;65970;50.476;4.840;2023-09-19T10:56:32;19.20;31.10
77039;DHT22;65970;50.476;4.840;2023-09-19T11:01:45;19.20;31.20
77039;DHT22;65970;50.476;4.840;2023-09-19T11:07:03;19.20;31.00
77039;DHT22;65970;50.476;4.840;2023-09-19T11:12:04;19.30;31.20
77039;DHT22;65970;50.476;4.840;2023-09-19T11:22:05;19.30;31.10
77039;DHT22;65970;50.476;4.840;2023-09-19T11:27:11;19.30;31.10
77039;DHT22;65970;50.476;4.840;2023-09-19T11:32:12;19.30;31.00
77039;DHT22;65970;50.476;4.840;2023-09-19T11:42:44;19.40;31.20
77039;DHT22;65970;50.476;4.840;2023-09-19T11:47:46;19.40;30.80
77039;DHT22;65970;50.476;4.840;2023-09-19T11:52:50;19.50;30.80
77039;DHT22;65970;50.476;4.840;2023-09-19T11:57:55;19.50;30.80
77039;DHT22;65970;50.476;4.840;2023-09-19T12:02:56;19.50;30.90
77039;DHT22;65970;50.476;4.840;2023-09-19T12:07:59;19.60;31.10
77039;DHT22;65970;50.476;4.840;2023-09-19T12:12:59;19.60;30.90
77039;DHT22;65970;50.476;4.840;2023-09-19T12:18:00;19.70;30.90
77039;DHT22;65970;50.476;4.840;2023-09-19T12:23:01;19.70;30.80
77039;DHT22;65970;50.476;4.840;2023-09-19T12:28:01;19.80;30.80
77039;DHT22;65970;50.476;4.840;2023-09-19T12:33:02;19.80;30.60
77039;DHT22;65970;50.476;4.840;2023-09-19T12:38:03;19.90;30.60
77039;DHT22;65970;50.476;4.840;2023-09-19T12:43:04;19.90;30.70
77039;DHT22;65970;50.476;4.840;2023-09-19T12:48:23;20.00;30.60
77039;DHT22;65970;50.476;4.840;2023-09-19T12:53:27;20.00;30.80
77039;DHT22;65970;50.476;4.840;2023-09-19T12:58:28;20.00;30.50
77039;DHT22;65970;50.476;4.840;2023-09-19T13:03:31;20.10;30.50
77039;DHT22;65970;50.476;4.840;2023-09-19T13:08:36;20.10;30.50
77039;DHT22;65970;50.476;4.840;2023-09-19T13:18:46;20.20;30.60
77039;DHT22;65970;50.476;4.840;2023-09-19T13:23:47;20.20;30.60
77039;DHT22;65970;50.476;4.840;2023-09-19T13:28:47;20.20;30.60
77039;DHT22;65970;50.476;4.840;2023-09-19T13:33:48;20.20;30.60
77039;DHT22;65970;50.476;4.840;2023-09-19T13:38:49;20.30;30.70
77039;DHT22;65970;50.476;4.840;2023-09-19T13:43:49;20.30;30.60
77039;DHT22;65970;50.476;4.840;2023-09-19T13:48:50;20.30;30.70
77039;DHT22;65970;50.476;4.840;2023-09-19T13:53:50;20.30;29.90
77039;DHT22;65970;50.476;4.840;2023-09-19T13:58:51;20.30;30.70
77039;DHT22;65970;50.476;4.840;2023-09-19T14:03:52;20.30;30.60
77039;DHT22;65970;50.476;4.840;2023-09-19T14:08:52;20.30;30.50
77039;DHT22;65970;50.476;4.840;2023-09-19T14:13:53;20.40;30.70
77039;DHT22;65970;50.476;4.840;2023-09-19T14:18:53;20.40;30.60
77039;DHT22;65970;50.476;4.840;2023-09-19T14:23:54;20.40;30.40
77039;DHT22;65970;50.476;4.840;2023-09-19T14:28:54;20.50;30.30
77039;DHT22;65970;50.476;4.840;2023-09-19T14:33:55;20.40;30.10
77039;DHT22;65970;50.476;4.840;2023-09-19T14:38:56;20.50;30.20
77039;DHT22;65970;50.476;4.840;2023-09-19T14:43:57;20.50;30.10
77039;DHT22;65970;50.476;4.840;2023-09-19T14:48:57;20.40;30.10
77039;DHT22;65970;50.476;4.840;2023-09-19T14:53:58;20.40;30.20
77039;DHT22;65970;50.476;4.840;2023-09-19T14:59:01;20.40;30.20
77039;DHT22;65970;50.476;4.840;2023-09-19T15:04:01;20.40;30.30
77039;DHT22;65970;50.476;4.840;2023-09-19T15:09:02;20.40;30.40
77039;DHT22;65970;50.476;4.840;2023-09-19T15:14:03;20.40;30.40
77039;DHT22;65970;50.476;4.840;2023-09-19T15:19:03;20.40;30.50
77039;DHT22;65970;50.476;4.840;2023-09-19T15:24:04;20.40;30.50
77039;DHT22;65970;50.476;4.840;2023-09-19T15:29:08;20.40;30.30
77039;DHT22;65970;50.476;4.840;2023-09-19T15:34:08;20.40;30.50
77039;DHT22;65970;50.476;4.840;2023-09-19T15:39:09;20.40;30.00
77039;DHT22;65970;50.476;4.840;2023-09-19T15:44:16;20.40;30.00
77039;DHT22;65970;50.476;4.840;2023-09-19T15:49:17;20.40;30.20
77039;DHT22;65970;50.476;4.840;2023-09-19T15:54:18;20.40;30.00
77039;DHT22;65970;50.476;4.840;2023-09-19T15:59:18;20.40;30.20
77039;DHT22;65970;50.476;4.840;2023-09-19T16:04:19;20.40;30.40
77039;DHT22;65970;50.476;4.840;2023-09-19T16:09:19;20.40;30.50
77039;DHT22;65970;50.476;4.840;2023-09-19T16:14:20;20.40;30.50
77039;DHT22;65970;50.476;4.840;2023-09-19T16:19:20;20.40;30.60
77039;DHT22;65970;50.476;4.840;2023-09-19T16:24:22;20.40;30.30
77039;DHT22;65970;50.476;4.840;2023-09-19T16:29:22;20.40;30.40
77039;DHT22;65970;50.476;4.840;2023-09-19T16:34:23;20.40;30.50
77039;DHT22;65970;50.476;4.840;2023-09-19T16:39:23;20.40;30.50
77039;DHT22;65970;50.476;4.840;2023-09-19T16:44:24;20.40;30.30
77039;DHT22;65970;50.476;4.840;2023-09-19T16:49:24;20.40;30.40
77039;DHT22;65970;50.476;4.840;2023-09-19T16:54:25;20.40;30.40
77039;DHT22;65970;50.476;4.840;2023-09-19T16:59:25;20.30;30.20
77039;DHT22;65970;50.476;4.840;2023-09-19T17:04:26;20.30;30.40
77039;DHT22;65970;50.476;4.840;2023-09-19T17:09:27;20.30;30.60
77039;DHT22;65970;50.476;4.840;2023-09-19T17:14:27;20.30;30.70
77039;DHT22;65970;50.476;4.840;2023-09-19T17:19:28;20.30;30.50
77039;DHT22;65970;50.476;4.840;2023-09-19T17:24:28;20.20;30.50
77039;DHT22;65970;50.476;4.840;2023-09-19T17:29:29;20.30;30.70
77039;DHT22;65970;50.476;4.840;2023-09-19T17:34:29;20.30;30.60
77039;DHT22;65970;50.476;4.840;2023-09-19T17:39:30;20.30;30.80
77039;DHT22;65970;50.476;4.840;2023-09-19T17:44:30;20.20;30.70
77039;DHT22;65970;50.476;4.840;2023-09-19T17:49:32;20.20;30.70
77039;DHT22;65970;50.476;4.840;2023-09-19T17:54:32;20.20;30.70
77039;DHT22;65970;50.476;4.840;2023-09-19T17:59:33;20.20;30.70
77039;DHT22;65970;50.476;4.840;2023-09-19T18:04:34;20.20;30.50
77039;DHT22;65970;50.476;4.840;2023-09-19T18:09:34;20.10;30.60
77039;DHT22;65970;50.476;4.840;2023-09-19T18:14:35;20.10;30.50
77039;DHT22;65970;50.476;4.840;2023-09-19T18:19:35;20.10;30.50
77039;DHT22;65970;50.476;4.840;2023-09-19T18:24:36;20.10;30.40
77039;DHT22;65970;50.476;4.840;2023-09-19T18:29:36;20.00;30.30
77039;DHT22;65970;50.476;4.840;2023-09-19T18:34:37;20.00;30.30
77039;DHT22;65970;50.476;4.840;2023-09-19T18:39:37;20.00;30.30
77039;DHT22;65970;50.476;4.840;2023-09-19T18:44:38;20.00;30.50
77039;DHT22;65970;50.476;4.840;2023-09-19T18:49:38;20.00;30.40
77039;DHT22;65970;50.476;4.840;2023-09-19T18:54:39;19.90;30.40
77039;DHT22;65970;50.476;4.840;2023-09-19T18:59:40;19.90;30.40
77039;DHT22;65970;50.476;4.840;2023-09-19T19:04:40;19.90;30.40
77039;DHT22;65970;50.476;4.840;2023-09-19T19:09:41;19.90;30.50
77039;DHT22;65970;50.476;4.840;2023-09-19T19:14:41;19.90;30.50
77039;DHT22;65970;50.476;4.840;2023-09-19T19:19:43;19.90;30.60
77039;DHT22;65970;50.476;4.840;2023-09-19T19:24:44;19.90;30.60
77039;DHT22;65970;50.476;4.840;2023-09-19T19:29:44;19.80;30.60
77039;DHT22;65970;50.476;4.840;2023-09-19T19:34:45;19.80;30.50
77039;DHT22;65970;50.476;4.840;2023-09-19T19:39:45;19.80;29.20
77039;DHT22;65970;50.476;4.840;2023-09-19T19:44:46;19.80;30.60
77039;DHT22;65970;50.476;4.840;2023-09-19T19:49:46;19.80;30.60
77039;DHT22;65970;50.476;4.840;2023-09-19T19:54:47;19.80;30.70
77039;DHT22;65970;50.476;4.840;2023-09-19T19:59:48;19.80;30.80
77039;DHT22;65970;50.476;4.840;2023-09-19T20:04:48;19.80;30.80
77039;DHT22;65970;50.476;4.840;2023-09-19T20:09:49;19.80;30.80
77039;DHT22;65970;50.476;4.840;2023-09-19T20:14:49;19.80;30.80
77039;DHT22;65970;50.476;4.840;2023-09-19T20:19:50;19.70;30.80
77039;DHT22;65970;50.476;4.840;2023-09-19T20:24:50;19.70;30.80
77039;DHT22;65970;50.476;4.840;2023-09-19T20:29:51;19.70;30.90
77039;DHT22;65970;50.476;4.840;2023-09-19T20:34:51;19.70;30.90
77039;DHT22;65970;50.476;4.840;2023-09-19T20:39:52;19.70;30.80
77039;DHT22;65970;50.476;4.840;2023-09-19T20:44:52;19.70;30.80
77039;DHT22;65970;50.476;4.840;2023-09-19T20:49:53;19.70;30.80
77039;DHT22;65970;50.476;4.840;2023-09-19T20:54:54;19.70;30.80
77039;DHT22;65970;50.476;4.840;2023-09-19T20:59:54;19.70;30.80
77039;DHT22;65970;50.476;4.840;2023-09-19T21:04:55;19.70;30.70
77039;DHT22;65970;50.476;4.840;2023-09-19T21:09:57;19.70;30.80
77039;DHT22;65970;50.476;4.840;2023-09-19T21:14:58;19.70;30.70
77039;DHT22;65970;50.476;4.840;2023-09-19T21:19:58;19.70;30.80
77039;DHT22;65970;50.476;4.840;2023-09-19T21:24:59;19.60;30.40
77039;DHT22;65970;50.476;4.840;2023-09-19T21:29:59;19.60;30.30
77039;DHT22;65970;50.476;4.840;2023-09-19T21:35:00;19.60;30.30
77039;DHT22;65970;50.476;4.840;2023-09-19T21:40:00;19.60;30.30
77039;DHT22;65970;50.476;4.840;2023-09-19T21:45:01;19.60;30.10
77039;DHT22;65970;50.476;4.840;2023-09-19T21:50:02;19.60;30.10
77039;DHT22;65970;50.476;4.840;2023-09-19T21:55:03;19.50;30.10
77039;DHT22;65970;50.476;4.840;2023-09-19T22:00:03;19.50;30.20
77039;DHT22;65970;50.476;4.840;2023-09-19T22:05:04;19.50;30.00
77039;DHT22;65970;50.476;4.840;2023-09-19T22:10:05;19.50;30.40
77039;DHT22;65970;50.476;4.840;2023-09-19T22:15:06;19.50;30.10
77039;DHT22;65970;50.476;4.840;2023-09-19T22:20:08;19.50;30.30
77039;DHT22;65970;50.476;4.840;2023-09-19T22:25:09;19.50;30.10
77039;DHT22;65970;50.476;4.840;2023-09-19T22:30:10;19.50;30.10
77039;DHT22;65970;50.476;4.840;2023-09-19T22:35:10;19.50;30.10
77039;DHT22;65970;50.476;4.840;2023-09-19T22:40:11;19.40;30.00
77039;DHT22;65970;50.476;4.840;2023-09-19T22:45:11;19.40;30.20
77039;DHT22;65970;50.476;4.840;2023-09-19T22:50:12;19.40;30.20
77039;DHT22;65970;50.476;4.840;2023-09-19T22:55:13;19.40;30.10
77039;DHT22;65970;50.476;4.840;2023-09-19T23:00:13;19.40;30.10
77039;DHT22;65970;50.476;4.840;2023-09-19T23:05:14;19.40;30.00
77039;DHT22;65970;50.476;4.840;2023-09-19T23:10:15;19.40;30.10
77039;DHT22;65970;50.476;4.840;2023-09-19T23:15:15;19.40;30.10
77039;DHT22;65970;50.476;4.840;2023-09-19T23:20:16;19.40;30.10
77039;DHT22;65970;50.476;4.840;2023-09-19T23:25:16;19.40;30.10
77039;DHT22;65970;50.476;4.840;2023-09-19T23:30:17;19.40;30.10
77039;DHT22;65970;50.476;4.840;2023-09-19T23:35:18;19.30;30.30
77039;DHT22;65970;50.476;4.840;2023-09-19T23:40:18;19.40;30.10
77039;DHT22;65970;50.476;4.840;2023-09-19T23:45:19;19.30;30.10
77039;DHT22;65970;50.476;4.840;2023-09-19T23:50:19;19.40;30.20
77039;DHT22;65970;50.476;4.840;2023-09-19T23:55:20;19.30;30.10
